Terminal Aerodrome Forecast
Issued by NWS

Home | Current Version | Previous Version | Text Only | Print | Product List | Glossary On
Versions: 1 2 3 4 5 6 7 8 9 10 11 12 13 14
000
FTUS44 KLIX 171740
TAFHUM
TAF
KHUM 171740Z 1718/1818 36004KT P6SM SKC
     FM172200 05009KT P6SM FEW150
     FM180200 04003KT P6SM SKC
      TEMPO 1809/1813 2SM BR
     FM181400 04007KT P6SM SKC=

USA.gov is the U.S. government's official web portal to all federal, state and local government web resources and services.